createdAt,value
2022-12-01T00:01:13.237Z,101236.19
2022-12-01T00:03:40.209Z,101230.38
2022-12-01T00:06:11.281Z,101230.19
2022-12-01T00:08:38.376Z,101225.16
2022-12-01T00:11:14.666Z,101230.44
2022-12-01T00:13:41.444Z,101226.19
2022-12-01T00:16:16.833Z,101227.59
2022-12-01T00:18:44.217Z,101218.97
2022-12-01T00:21:14.717Z,101214.19
2022-12-01T00:23:47.397Z,101217.94
2022-12-01T00:26:15.208Z,101220.81
2022-12-01T00:28:42.143Z,101217.78
2022-12-01T00:31:12.911Z,101214.81
2022-12-01T00:33:40.070Z,101224.38
2022-12-01T00:36:07.541Z,101211.78
2022-12-01T00:38:34.586Z,101204.00
2022-12-01T00:41:01.818Z,101211.03
2022-12-01T00:43:28.713Z,101213.19
2022-12-01T00:45:56.622Z,101214.19
2022-12-01T00:48:23.563Z,101200.81
2022-12-01T00:50:54.416Z,101201.91
2022-12-01T00:53:23.041Z,101195.00
2022-12-01T00:55:50.039Z,101198.16
2022-12-01T00:58:16.869Z,101198.25
2022-12-01T01:00:43.624Z,101185.66
2022-12-01T01:03:11.152Z,101187.94
2022-12-01T01:05:38.696Z,101189.78
2022-12-01T01:08:09.947Z,101182.88
2022-12-01T01:10:44.851Z,101186.09
2022-12-01T01:13:12.974Z,101185.38
2022-12-01T01:15:40.363Z,101196.09
2022-12-01T01:18:07.471Z,101191.56
2022-12-01T01:20:34.283Z,101196.25
2022-12-01T01:23:01.068Z,101199.25
2022-12-01T01:25:27.829Z,101206.59
2022-12-01T01:27:54.673Z,101211.28
2022-12-01T01:30:21.535Z,101211.47
2022-12-01T01:32:48.416Z,101209.41
2022-12-01T01:35:15.360Z,101201.09
2022-12-01T01:37:42.183Z,101213.91
2022-12-01T01:40:09.581Z,101221.75
2022-12-01T01:42:36.402Z,101216.41
2022-12-01T01:45:04.141Z,101211.88
2022-12-01T01:47:33.622Z,101214.56
2022-12-01T01:50:06.617Z,101206.44
2022-12-01T01:52:40.151Z,101207.69
2022-12-01T01:55:08.062Z,101215.56
2022-12-01T01:57:35.064Z,101213.25
2022-12-01T02:00:08.019Z,101205.00
2022-12-01T02:02:45.465Z,101210.78
2022-12-01T02:05:21.589Z,101203.34
2022-12-01T02:07:49.611Z,101198.34
2022-12-01T02:10:22.720Z,101201.03
2022-12-01T02:13:01.504Z,101196.00
2022-12-01T02:15:56.015Z,101193.38
2022-12-01T02:18:47.612Z,101197.94
2022-12-01T02:21:32.315Z,101184.19
2022-12-01T02:24:17.876Z,101198.25
2022-12-01T02:26:45.461Z,101192.19
2022-12-01T02:29:27.012Z,101198.19
2022-12-01T02:32:18.731Z,101194.03
2022-12-01T02:35:07.087Z,101195.69
2022-12-01T02:37:43.126Z,101210.25
2022-12-01T02:40:19.309Z,101194.41
2022-12-01T02:43:03.868Z,101205.94
2022-12-01T02:45:37.402Z,101206.75
2022-12-01T02:48:08.838Z,101201.44
2022-12-01T02:50:36.833Z,101210.94
2022-12-01T02:53:04.365Z,101210.25
2022-12-01T02:55:31.166Z,101199.78
2022-12-01T02:57:58.049Z,101195.25
2022-12-01T03:00:25.013Z,101193.47
2022-12-01T03:03:05.128Z,101193.66
2022-12-01T03:05:58.381Z,101200.13
2022-12-01T03:08:53.368Z,101201.97
2022-12-01T03:11:28.863Z,101205.66
2022-12-01T03:14:31.006Z,101207.69
2022-12-01T03:16:59.946Z,101203.44
2022-12-01T03:19:37.885Z,101202.69
2022-12-01T03:22:14.925Z,101190.16
2022-12-01T03:24:44.432Z,101209.19
2022-12-01T03:27:11.935Z,101203.69
2022-12-01T03:29:47.695Z,101206.47
2022-12-01T03:32:39.817Z,101212.84
2022-12-01T03:35:11.127Z,101211.72
2022-12-01T03:37:42.922Z,101206.19
2022-12-01T03:40:12.527Z,101215.22
2022-12-01T03:42:42.359Z,101204.22
2022-12-01T03:45:12.571Z,101217.91
2022-12-01T03:47:40.528Z,101216.72
2022-12-01T03:50:09.900Z,101209.88
2022-12-01T03:53:02.610Z,101206.84
2022-12-01T03:55:31.097Z,101217.53
2022-12-01T03:58:16.496Z,101212.22
2022-12-01T04:00:43.882Z,101214.91
2022-12-01T04:03:18.093Z,101208.91
2022-12-01T04:05:45.075Z,101215.22
2022-12-01T04:08:11.867Z,101211.38
2022-12-01T04:10:38.967Z,101222.88
2022-12-01T04:13:12.089Z,101222.53
2022-12-01T04:15:39.136Z,101222.72
2022-12-01T04:18:05.997Z,101222.56
2022-12-01T04:20:34.392Z,101227.22
2022-12-01T04:23:01.245Z,101229.72
2022-12-01T04:25:28.077Z,101222.88
2022-12-01T04:27:54.795Z,101227.06
2022-12-01T04:30:21.684Z,101218.56
2022-12-01T04:32:48.436Z,101217.22
2022-12-01T04:35:15.288Z,101214.59
2022-12-01T04:37:42.230Z,101209.25
2022-12-01T04:40:09.534Z,101205.22
2022-12-01T04:42:36.345Z,101208.38
2022-12-01T04:45:03.720Z,101208.72
2022-12-01T04:47:30.526Z,101209.06
2022-12-01T04:49:57.354Z,101205.72
2022-12-01T04:52:24.139Z,101210.91
2022-12-01T04:54:50.990Z,101216.38
2022-12-01T04:57:17.722Z,101204.59
2022-12-01T04:59:44.562Z,101208.25
2022-12-01T05:02:11.386Z,101213.56
2022-12-01T05:04:41.435Z,101216.06
2022-12-01T05:07:08.316Z,101211.41
2022-12-01T05:09:35.147Z,101220.41
2022-12-01T05:12:01.964Z,101220.72
2022-12-01T05:14:28.843Z,101217.75
2022-12-01T05:16:56.158Z,101219.94
2022-12-01T05:19:41.546Z,101210.78
2022-12-01T05:22:08.382Z,101217.78
2022-12-01T05:24:35.363Z,101206.94
2022-12-01T05:27:02.254Z,101208.28
2022-12-01T05:29:29.059Z,101201.16
2022-12-01T05:31:55.865Z,101201.91
2022-12-01T05:34:22.723Z,101206.25
2022-12-01T05:36:50.385Z,101201.81
2022-12-01T05:39:17.247Z,101204.94
2022-12-01T05:41:44.082Z,101202.75
2022-12-01T05:44:10.876Z,101209.91
2022-12-01T05:46:37.661Z,101204.72
2022-12-01T05:49:04.657Z,101204.56
2022-12-01T05:51:31.525Z,101211.84
2022-12-01T05:53:59.925Z,101213.22
2022-12-01T05:56:26.981Z,101204.22
2022-12-01T05:58:53.824Z,101211.38
2022-12-01T06:01:20.776Z,101212.72
2022-12-01T06:03:47.671Z,101214.53
2022-12-01T06:06:14.533Z,101219.03
2022-12-01T06:08:41.334Z,101217.06
2022-12-01T06:11:08.530Z,101213.03
2022-12-01T06:13:35.400Z,101220.84
2022-12-01T06:16:06.570Z,101222.03
2022-12-01T06:18:36.083Z,101211.03
2022-12-01T06:21:04.377Z,101216.72
2022-12-01T06:23:31.170Z,101217.84
2022-12-01T06:25:58.475Z,101212.34
2022-12-01T06:28:25.277Z,101213.84
2022-12-01T06:30:52.105Z,101214.53
2022-12-01T06:33:18.928Z,101222.69
2022-12-01T06:35:45.739Z,101217.84
2022-12-01T06:38:12.711Z,101219.38
2022-12-01T06:40:39.475Z,101214.69
2022-12-01T06:43:06.582Z,101221.38
2022-12-01T06:45:33.435Z,101209.34
2022-12-01T06:48:00.312Z,101216.53
2022-12-01T06:50:27.198Z,101222.00
2022-12-01T06:52:54.961Z,101221.31
2022-12-01T06:55:21.962Z,101224.84
2022-12-01T06:57:49.207Z,101227.00
2022-12-01T07:00:16.721Z,101238.56
2022-12-01T07:02:44.065Z,101235.56
2022-12-01T07:05:11.101Z,101232.97
2022-12-01T07:07:39.251Z,101231.84
2022-12-01T07:10:07.422Z,101236.53
2022-12-01T07:12:34.288Z,101229.47
2022-12-01T07:15:01.942Z,101233.16
2022-12-01T07:17:29.724Z,101233.50
2022-12-01T07:19:56.935Z,101236.47
2022-12-01T07:22:26.982Z,101227.00
2022-12-01T07:24:57.973Z,101231.06
2022-12-01T07:27:24.717Z,101234.78
2022-12-01T07:29:51.705Z,101231.84
2022-12-01T07:32:18.646Z,101235.00
2022-12-01T07:34:45.519Z,101244.00
2022-12-01T07:37:12.313Z,101246.47
2022-12-01T07:39:39.285Z,101240.16
2022-12-01T07:42:06.159Z,101238.69
2022-12-01T07:44:33.061Z,101240.81
2022-12-01T07:46:59.873Z,101240.31
2022-12-01T07:49:26.826Z,101244.38
2022-12-01T07:51:53.598Z,101242.81
2022-12-01T07:54:21.415Z,101246.97
2022-12-01T07:56:48.241Z,101250.19
2022-12-01T07:59:15.005Z,101244.81
2022-12-01T08:01:44.657Z,101254.34
2022-12-01T08:04:12.155Z,101243.81
2022-12-01T08:06:39.085Z,101247.88
2022-12-01T08:09:06.287Z,101257.19
2022-12-01T08:11:33.024Z,101257.00
2022-12-01T08:13:59.848Z,101256.97
2022-12-01T08:16:26.866Z,101255.63
2022-12-01T08:18:54.225Z,101263.81
2022-12-01T08:21:23.160Z,101261.78
2022-12-01T08:23:54.527Z,101263.44
2022-12-01T08:26:22.089Z,101262.13
2022-12-01T08:28:48.884Z,101266.41
2022-12-01T08:31:17.932Z,101271.44
2022-12-01T08:33:45.667Z,101276.09
2022-12-01T08:36:12.635Z,101273.09
2022-12-01T08:38:39.359Z,101276.59
2022-12-01T08:41:08.467Z,101272.91
2022-12-01T08:43:57.810Z,101285.44
2022-12-01T08:46:25.815Z,101282.09
2022-12-01T08:48:55.150Z,101274.75
2022-12-01T08:51:22.023Z,101282.59
2022-12-01T08:53:49.940Z,101280.22
2022-12-01T08:56:28.660Z,101278.53
2022-12-01T08:58:55.856Z,101281.50
2022-12-01T09:01:23.207Z,101271.06
2022-12-01T09:04:05.493Z,101262.88
2022-12-01T09:06:35.418Z,101267.34
2022-12-01T09:09:02.241Z,101272.81
2022-12-01T09:11:29.046Z,101274.47
2022-12-01T09:13:55.820Z,101273.47
2022-12-01T09:16:22.609Z,101269.31
2022-12-01T09:18:49.483Z,101270.69
2022-12-01T09:21:22.916Z,101276.03
2022-12-01T09:23:50.186Z,101268.66
2022-12-01T09:26:19.054Z,101276.84
2022-12-01T09:28:46.789Z,101269.97
2022-12-01T09:31:14.863Z,101276.44
2022-12-01T09:33:41.710Z,101276.97
2022-12-01T09:36:09.194Z,101276.63
2022-12-01T09:38:37.276Z,101269.13
2022-12-01T09:41:22.166Z,101265.75
2022-12-01T09:43:52.638Z,101275.41
2022-12-01T09:46:23.242Z,101275.94
2022-12-01T09:48:51.792Z,101277.09
2022-12-01T09:51:21.331Z,101269.22
2022-12-01T09:53:54.151Z,101277.22
2022-12-01T09:56:32.681Z,101280.72
2022-12-01T09:59:07.294Z,101282.88
2022-12-01T10:01:36.958Z,101285.25
2022-12-01T10:04:22.531Z,101291.22
2022-12-01T10:06:53.088Z,101293.84
2022-12-01T10:09:42.581Z,101291.06
2022-12-01T10:12:20.846Z,101292.34
2022-12-01T10:14:48.984Z,101285.34
2022-12-01T10:17:42.290Z,101284.66
2022-12-01T10:20:38.199Z,101291.53
2022-12-01T10:23:21.588Z,101278.97
2022-12-01T10:26:14.546Z,101281.44
2022-12-01T10:29:09.335Z,101287.81
2022-12-01T10:31:48.104Z,101286.59
2022-12-01T10:34:16.739Z,101283.41
2022-12-01T10:36:43.593Z,101284.34
2022-12-01T10:39:18.212Z,101275.88
2022-12-01T10:41:46.034Z,101283.91
2022-12-01T10:44:12.769Z,101286.72
2022-12-01T10:46:56.140Z,101280.53
2022-12-01T10:49:39.174Z,101287.31
2022-12-01T10:52:06.792Z,101281.59
2022-12-01T10:54:37.686Z,101284.81
2022-12-01T10:57:06.135Z,101275.69
2022-12-01T10:59:39.045Z,101279.66
2022-12-01T11:02:16.368Z,101283.13
2022-12-01T11:04:46.577Z,101280.69
2022-12-01T11:07:20.559Z,101275.69
2022-12-01T11:10:05.595Z,101272.84
2022-12-01T11:12:33.143Z,101281.44
2022-12-01T11:15:00.193Z,101273.41
2022-12-01T11:17:37.451Z,101274.78
2022-12-01T11:20:40.125Z,101272.13
2022-12-01T11:23:09.935Z,101278.09
2022-12-01T11:25:37.036Z,101283.22
2022-12-01T11:28:04.782Z,101266.41
2022-12-01T11:30:32.920Z,101268.94
2022-12-01T11:33:01.206Z,101267.22
2022-12-01T11:35:36.671Z,101271.44
2022-12-01T11:40:53.818Z,101264.53
2022-12-01T11:43:30.621Z,101262.47
2022-12-01T11:45:59.127Z,101253.28
2022-12-01T11:48:28.433Z,101261.31
2022-12-01T11:51:20.431Z,101250.78
2022-12-01T11:53:47.512Z,101253.09
2022-12-01T11:56:23.696Z,101245.94
2022-12-01T11:58:54.676Z,101243.16
2022-12-01T12:01:40.336Z,101238.56
2022-12-01T12:04:43.453Z,101242.44
2022-12-01T12:07:26.647Z,101235.22
2022-12-01T12:10:22.772Z,101234.13
2022-12-01T12:13:11.476Z,101239.13
2022-12-01T12:15:59.047Z,101237.66
2022-12-01T12:18:44.673Z,101230.91
2022-12-01T12:21:17.426Z,101227.69
2022-12-01T12:24:01.072Z,101238.22
2022-12-01T12:26:40.870Z,101222.69
2022-12-01T12:29:27.507Z,101224.66
2022-12-01T12:31:57.259Z,101228.22
2022-12-01T12:34:45.402Z,101227.50
2022-12-01T12:37:22.876Z,101228.03
2022-12-01T12:40:14.631Z,101229.53
2022-12-01T12:42:48.544Z,101235.16
2022-12-01T12:45:23.954Z,101230.81
2022-12-01T12:48:09.230Z,101233.50
2022-12-01T12:50:42.343Z,101232.47
2022-12-01T12:53:16.213Z,101239.50
2022-12-01T12:55:46.792Z,101235.63
2022-12-01T12:58:29.596Z,101239.03
2022-12-01T13:01:01.990Z,101234.72
2022-12-01T13:03:46.469Z,101229.88
2022-12-01T13:06:36.363Z,101241.72
2022-12-01T13:09:16.639Z,101236.63
2022-12-01T13:12:18.309Z,101239.94
2022-12-01T13:14:50.523Z,101236.81
2022-12-01T13:18:03.639Z,101248.16
2022-12-01T13:20:32.174Z,101246.13
2022-12-01T13:22:59.854Z,101238.56
2022-12-01T13:25:38.981Z,101242.63
2022-12-01T13:28:15.008Z,101242.25
2022-12-01T13:31:01.049Z,101232.56
2022-12-01T13:33:28.220Z,101246.50
2022-12-01T13:36:22.612Z,101237.47
2022-12-01T13:38:42.340Z,101232.09
2022-12-01T13:41:24.549Z,101230.25
2022-12-01T13:44:03.376Z,101228.69
2022-12-01T13:46:42.612Z,101236.56
2022-12-01T13:49:33.510Z,101231.19
2022-12-01T13:52:16.030Z,101232.66
2022-12-01T13:55:12.089Z,101230.00
2022-12-01T13:58:13.239Z,101225.38
2022-12-01T14:00:41.372Z,101216.50
2022-12-01T14:03:17.474Z,101217.34
2022-12-01T14:05:53.416Z,101220.66
2022-12-01T14:08:31.117Z,101219.72
2022-12-01T14:10:58.990Z,101220.66
2022-12-01T14:13:26.224Z,101208.66
2022-12-01T14:15:55.500Z,101213.81
2022-12-01T14:18:45.535Z,101220.19
2022-12-01T14:21:12.592Z,101219.56
2022-12-01T14:24:05.061Z,101220.94
2022-12-01T14:26:32.094Z,101214.41
2022-12-01T14:29:01.891Z,101210.50
2022-12-01T14:31:34.834Z,101213.00
2022-12-01T14:34:03.203Z,101213.63
2022-12-01T14:36:36.084Z,101198.34
2022-12-01T14:39:10.651Z,101215.41
2022-12-01T14:41:45.694Z,101204.53
2022-12-01T14:44:33.879Z,101202.03
2022-12-01T14:47:12.549Z,101205.44
2022-12-01T14:50:04.113Z,101204.06
2022-12-01T14:52:32.333Z,101206.19
2022-12-01T14:55:00.845Z,101201.09
2022-12-01T14:57:38.495Z,101201.59
2022-12-01T15:00:14.204Z,101209.41
2022-12-01T15:03:03.479Z,101199.44
2022-12-01T15:05:32.591Z,101200.00
2022-12-01T15:08:33.258Z,101207.66
2022-12-01T15:10:58.519Z,101200.84
2022-12-01T15:13:30.956Z,101193.19
2022-12-01T15:15:59.256Z,101205.16
2022-12-01T15:18:34.073Z,101196.03
2022-12-01T15:21:33.453Z,101194.28
2022-12-01T15:24:00.223Z,101196.94
2022-12-01T15:26:34.001Z,101197.91
2022-12-01T15:29:36.790Z,101204.97
2022-12-01T15:32:08.787Z,101205.91
2022-12-01T15:34:38.509Z,101193.25
2022-12-01T15:37:09.984Z,101205.16
2022-12-01T15:39:46.678Z,101204.53
2022-12-01T15:42:28.866Z,101216.50
2022-12-01T15:45:22.526Z,101207.75
2022-12-01T15:47:51.338Z,101213.63
2022-12-01T15:50:45.990Z,101207.94
2022-12-01T15:53:29.474Z,101199.63
2022-12-01T15:55:59.321Z,101203.75
2022-12-01T15:58:30.389Z,101208.97
2022-12-01T16:00:59.935Z,101205.63
2022-12-01T16:03:27.066Z,101205.34
2022-12-01T16:05:54.545Z,101195.28
2022-12-01T16:08:23.864Z,101205.59
2022-12-01T16:11:18.976Z,101210.31
2022-12-01T16:13:50.285Z,101214.19
2022-12-01T16:16:39.643Z,101210.88
2022-12-01T16:19:09.275Z,101213.16
2022-12-01T16:21:47.754Z,101216.19
2022-12-01T16:24:21.312Z,101209.56
2022-12-01T16:26:54.286Z,101222.47
2022-12-01T16:29:23.456Z,101217.50
2022-12-01T16:32:19.446Z,101218.31
2022-12-01T16:34:46.295Z,101206.97
2022-12-01T16:37:14.174Z,101203.47
2022-12-01T16:39:41.054Z,101219.69
2022-12-01T16:42:12.288Z,101204.50
2022-12-01T16:44:40.015Z,101207.94
2022-12-01T16:47:23.017Z,101208.56
2022-12-01T16:49:50.169Z,101214.75
2022-12-01T16:55:05.025Z,101212.75
2022-12-01T16:57:31.801Z,101218.63
2022-12-01T16:59:58.783Z,101210.22
2022-12-01T17:02:25.688Z,101210.75
2022-12-01T17:04:52.701Z,101212.25
2022-12-01T17:07:19.735Z,101214.25
2022-12-01T17:09:46.564Z,101217.59
2022-12-01T17:12:13.327Z,101208.59
2022-12-01T17:14:40.308Z,101212.13
2022-12-01T17:17:07.061Z,101218.78
2022-12-01T17:19:34.014Z,101213.53
2022-12-01T17:22:00.786Z,101216.09
2022-12-01T17:24:27.626Z,101221.09
2022-12-01T17:26:54.363Z,101212.25
2022-12-01T17:29:21.208Z,101216.28
2022-12-01T17:31:47.954Z,101216.28
2022-12-01T17:34:15.687Z,101219.88
2022-12-01T17:36:42.691Z,101214.94
2022-12-01T17:39:09.603Z,101217.41
2022-12-01T17:41:36.357Z,101217.31
2022-12-01T17:44:03.937Z,101222.84
2022-12-01T17:46:31.750Z,101224.63
2022-12-01T17:48:59.411Z,101225.69
2022-12-01T17:51:26.494Z,101225.06
2022-12-01T17:53:54.099Z,101220.72
2022-12-01T17:56:20.906Z,101226.34
2022-12-01T17:58:50.481Z,101220.16
2022-12-01T18:01:18.908Z,101229.00
2022-12-01T18:03:45.895Z,101221.19
2022-12-01T18:06:13.180Z,101220.91
2022-12-01T18:08:40.505Z,101221.00
2022-12-01T18:11:10.167Z,101213.34
2022-12-01T18:13:44.672Z,101217.84
2022-12-01T18:16:14.491Z,101224.25
2022-12-01T18:18:41.722Z,101224.81
2022-12-01T18:21:10.393Z,101224.88
2022-12-01T18:23:37.836Z,101229.19
2022-12-01T18:26:08.648Z,101222.19
2022-12-01T18:28:39.404Z,101220.34
2022-12-01T18:31:11.076Z,101219.69
2022-12-01T18:33:40.393Z,101210.47
2022-12-01T18:36:14.262Z,101219.34
2022-12-01T18:38:41.439Z,101222.56
2022-12-01T18:41:08.568Z,101219.59
2022-12-01T18:43:36.369Z,101221.53
2022-12-01T18:46:04.348Z,101221.09
2022-12-01T18:48:31.436Z,101226.53
2022-12-01T18:51:07.966Z,101225.16
2022-12-01T18:53:35.137Z,101230.41
2022-12-01T18:56:03.673Z,101229.78
2022-12-01T18:58:31.866Z,101224.25
2022-12-01T19:00:59.595Z,101223.50
2022-12-01T19:03:29.541Z,101216.59
2022-12-01T19:05:56.346Z,101223.50
2022-12-01T19:08:23.185Z,101221.66
2022-12-01T19:11:01.214Z,101233.19
2022-12-01T19:13:29.585Z,101229.41
2022-12-01T19:15:57.315Z,101230.38
2022-12-01T19:18:24.332Z,101230.25
2022-12-01T19:20:51.201Z,101226.88
2022-12-01T19:23:18.539Z,101222.41
2022-12-01T19:25:45.334Z,101231.91
2022-12-01T19:28:12.169Z,101234.50
2022-12-01T19:30:41.001Z,101223.50
2022-12-01T19:33:10.858Z,101229.41
2022-12-01T19:35:37.675Z,101235.16
2022-12-01T19:38:04.526Z,101233.19
2022-12-01T19:40:31.654Z,101238.47
2022-12-01T19:42:58.478Z,101235.22
2022-12-01T19:45:25.701Z,101236.63
2022-12-01T19:47:53.699Z,101241.91
2022-12-01T19:50:21.320Z,101237.91
2022-12-01T19:52:48.089Z,101243.63
2022-12-01T19:55:15.039Z,101241.72
2022-12-01T19:57:41.961Z,101229.88
2022-12-01T20:00:09.400Z,101238.72
2022-12-01T20:02:38.822Z,101238.84
2022-12-01T20:05:06.075Z,101233.84
2022-12-01T20:07:32.960Z,101240.03
2022-12-01T20:09:59.795Z,101241.69
2022-12-01T20:12:26.653Z,101239.41
2022-12-01T20:14:53.761Z,101239.91
2022-12-01T20:17:20.761Z,101237.19
2022-12-01T20:19:47.556Z,101238.00
2022-12-01T20:22:14.348Z,101232.72
2022-12-01T20:24:42.117Z,101234.13
2022-12-01T20:27:09.143Z,101244.91
2022-12-01T20:29:35.935Z,101241.97
2022-12-01T20:32:03.198Z,101237.69
2022-12-01T20:34:34.020Z,101230.63
2022-12-01T20:37:01.243Z,101239.75
2022-12-01T20:39:31.435Z,101238.19
2022-12-01T20:41:58.318Z,101237.00
2022-12-01T20:44:25.228Z,101237.69
2022-12-01T20:46:52.577Z,101239.28
2022-12-01T20:49:19.732Z,101238.38
2022-12-01T20:51:47.018Z,101247.09
2022-12-01T20:54:30.855Z,101242.91
2022-12-01T20:56:58.379Z,101245.72
2022-12-01T20:59:26.450Z,101245.09
2022-12-01T21:01:53.461Z,101243.25
2022-12-01T21:04:20.312Z,101245.19
2022-12-01T21:06:47.376Z,101252.75
2022-12-01T21:09:15.025Z,101244.06
2022-12-01T21:12:08.580Z,101251.38
2022-12-01T21:14:56.971Z,101249.34
2022-12-01T21:17:30.050Z,101248.34
2022-12-01T21:20:05.352Z,101255.34
2022-12-01T21:22:32.218Z,101250.19
2022-12-01T21:27:43.048Z,101240.22
2022-12-01T21:30:25.045Z,101251.63
2022-12-01T21:32:52.203Z,101247.66
2022-12-01T21:35:22.806Z,101249.06
2022-12-01T21:37:49.937Z,101254.41
2022-12-01T21:40:18.721Z,101252.38
2022-12-01T21:42:45.658Z,101265.38
2022-12-01T21:45:26.564Z,101251.63
2022-12-01T21:47:53.786Z,101257.09
2022-12-01T21:50:23.732Z,101260.41
2022-12-01T21:52:50.929Z,101261.16
2022-12-01T21:55:17.708Z,101263.09
2022-12-01T21:57:52.442Z,101263.00
2022-12-01T22:00:30.386Z,101271.66
2022-12-01T22:03:09.428Z,101268.16
2022-12-01T22:05:55.862Z,101264.84
2022-12-01T22:08:41.983Z,101259.22
2022-12-01T22:11:20.070Z,101257.19
2022-12-01T22:13:52.038Z,101255.81
2022-12-01T22:16:22.834Z,101259.94
2022-12-01T22:18:52.515Z,101260.31
2022-12-01T22:21:31.173Z,101253.50
2022-12-01T22:24:15.341Z,101255.63
2022-12-01T22:26:46.091Z,101264.75
2022-12-01T22:29:35.789Z,101256.16
2022-12-01T22:32:12.021Z,101257.38
2022-12-01T22:34:44.490Z,101260.59
2022-12-01T22:37:21.788Z,101262.47
2022-12-01T22:39:56.866Z,101259.09
2022-12-01T22:42:34.261Z,101259.88
2022-12-01T22:45:12.619Z,101261.16
2022-12-01T22:47:39.565Z,101261.53
2022-12-01T22:50:39.080Z,101253.69
2022-12-01T22:53:17.054Z,101253.69
2022-12-01T22:55:44.425Z,101253.03
2022-12-01T22:58:34.370Z,101257.75
2022-12-01T23:01:02.891Z,101242.22
2022-12-01T23:03:29.680Z,101244.56
2022-12-01T23:05:57.546Z,101243.22
2022-12-01T23:08:25.067Z,101252.19
2022-12-01T23:10:52.224Z,101258.38
2022-12-01T23:13:22.334Z,101259.66
2022-12-01T23:15:51.594Z,101263.72
2022-12-01T23:18:27.137Z,101266.66
2022-12-01T23:21:01.486Z,101269.06
2022-12-01T23:23:29.982Z,101264.81
2022-12-01T23:25:57.672Z,101270.34
2022-12-01T23:28:25.276Z,101261.06
2022-12-01T23:30:55.643Z,101264.63
2022-12-01T23:33:25.283Z,101271.81
2022-12-01T23:36:01.133Z,101274.31
2022-12-01T23:38:49.747Z,101270.47
2022-12-01T23:41:25.495Z,101262.97
2022-12-01T23:43:54.248Z,101261.25
2022-12-01T23:46:23.761Z,101262.97
2022-12-01T23:48:58.978Z,101267.78
2022-12-01T23:51:30.109Z,101262.63
2022-12-01T23:53:57.977Z,101257.75
2022-12-01T23:56:27.412Z,101264.75
2022-12-01T23:58:55.184Z,101266.47
